Terminal Aerodrome Forecast
Issued by NWS Jackson, MS

Home | Current Version | Previous Version | Text Only | Print | Product List | Glossary On
Versions: 1 2 3 4 5 6 7 8 9 10 11 12 13 14 15 16 17
000
FTUS44 KJAN 180800 AAA
TAFHBG
TAF AMD
KHBG 180838Z 1809/1906 07003KT 6SM -RA BKN008
     FM181000 05003KT 5SM -RA BR OVC007
     FM181500 01010KT 6SM BR OVC035
     FM182100 02010G16KT P6SM OVC050
     FM190200 36002KT P6SM SCT050 OVC100=

USA.gov is the U.S. government's official web portal to all federal, state and local government web resources and services.